Time;durP1;ratioP1;P1;durP2;ratioP2;P2;SDS_P1;SDS_P2;PMS_P1;PMS_P2;Temp;Humidity;BMP_temperature;BMP_pressure;BME280_temperature;BME280_humidity;BME280_pressure;Samples;Min_cycle;Max_cycle;Signal;HPM_P1;HPM_P2
2022/01/25 00:33:52;;;;;;;4.90;2.78;;;;;;;20.30;43.15;98300.56;13067914;22;20041;-55
2022/01/25 00:39:12;;;;;;;3.92;2.72;;;;;;;20.29;43.32;98285.44;13067235;22;20015;-55
2022/01/25 00:44:36;;;;;;;3.85;2.55;;;;;;;20.28;43.30;98294.66;13046654;22;20082;-55
2022/01/25 00:49:55;;;;;;;4.82;2.80;;;;;;;20.27;43.33;98296.56;13046514;22;20084;-55
2022/01/25 00:55:15;;;;;;;4.57;2.88;;;;;;;20.25;43.00;98285.22;13066702;22;20015;-55
2022/01/25 01:00:35;;;;;;;3.53;2.47;;;;;;;20.24;43.13;98275.47;13045535;22;20015;-55
2022/01/25 01:05:54;;;;;;;5.00;2.47;;;;;;;20.23;43.13;98267.66;13044803;22;20427;-55
2022/01/25 01:11:21;;;;;;;3.45;2.50;;;;;;;20.20;43.08;98266.34;13066546;22;20025;-56
2022/01/25 01:44:22;;;;;;;3.13;2.20;;;;;;;20.11;42.93;98259.97;13066575;22;20018;-55
2022/01/25 01:49:44;;;;;;;3.47;2.30;;;;;;;20.09;42.72;98254.88;13045274;22;20335;-55
2022/01/25 01:55:06;;;;;;;4.93;2.80;;;;;;;20.08;42.77;98252.47;13068935;22;20611;-55
2022/01/25 02:00:46;;;;;;;4.60;2.40;;;;;;;20.06;42.56;98260.06;13070999;22;20491;-55
2022/01/25 02:06:05;;;;;;;3.30;2.22;;;;;;;20.05;42.68;98263.84;13056909;22;20012;-55
2022/01/25 02:11:25;;;;;;;4.35;2.50;;;;;;;20.04;42.47;98251.44;13044487;22;20023;-55
2022/01/25 02:27:42;;;;;;;3.97;2.10;;;;;;;19.99;42.40;98244.16;13045092;22;20523;-55
2022/01/25 02:33:02;;;;;;;4.05;2.20;;;;;;;19.97;42.38;98238.25;13066034;22;20322;-55
2022/01/25 02:38:24;;;;;;;3.22;2.35;;;;;;;19.95;42.31;98227.75;13044649;22;20016;-55
2022/01/25 02:43:46;;;;;;;3.65;2.42;;;;;;;19.95;42.43;98232.34;13044919;22;20015;-55
2022/01/25 02:49:10;;;;;;;2.40;2.10;;;;;;;19.93;42.21;98232.66;13044952;22;20019;-55
2022/01/25 02:54:30;;;;;;;3.10;1.88;;;;;;;19.92;42.20;98222.13;13044087;22;20069;-55
2022/01/25 02:59:49;;;;;;;3.20;2.22;;;;;;;19.90;42.32;98219.69;13044152;22;20012;-55
2022/01/25 03:05:09;;;;;;;3.42;2.22;;;;;;;19.89;42.34;98217.28;12993154;22;1177529;-54
2022/01/25 03:10:42;;;;;;;3.15;1.98;;;;;;;19.87;42.03;98209.44;13048111;22;20466;-55
2022/01/25 03:16:17;;;;;;;2.45;2.10;;;;;;;19.86;42.31;98213.25;13048294;22;20523;-55
2022/01/25 03:21:38;;;;;;;3.25;2.20;;;;;;;19.84;42.21;98204.63;13047042;22;20023;-54
2022/01/25 03:26:58;;;;;;;2.88;2.20;;;;;;;19.84;42.27;98193.81;13068877;22;20041;-55
2022/01/25 03:32:17;;;;;;;3.83;2.13;;;;;;;19.83;42.08;98189.50;13068692;22;20015;-55
2022/01/25 03:37:37;;;;;;;2.47;1.70;;;;;;;19.81;42.16;98178.16;13068559;22;20023;-55
2022/01/25 03:42:59;;;;;;;2.53;1.98;;;;;;;19.79;42.13;98171.44;13068343;22;20038;-55
2022/01/25 03:53:38;;;;;;;3.88;2.05;;;;;;;19.77;42.15;98173.66;13067913;22;20018;-55
2022/01/25 03:58:57;;;;;;;2.20;1.90;;;;;;;19.75;42.00;98165.81;13047520;22;20485;-55
2022/01/25 04:04:21;;;;;;;2.40;1.90;;;;;;;19.74;42.05;98161.53;13047162;22;20019;-55
2022/01/25 04:09:40;;;;;;;2.85;2.05;;;;;;;19.72;42.06;98161.00;13067690;22;20021;-56
2022/01/25 04:15:01;;;;;;;2.53;2.13;;;;;;;19.71;41.87;98159.34;13067423;22;20011;-55
2022/01/25 04:20:26;;;;;;;2.30;1.80;;;;;;;19.68;42.05;98162.63;13067924;22;20019;-55
2022/01/25 04:25:45;;;;;;;2.38;1.80;;;;;;;19.66;41.88;98159.41;13046642;22;20117;-55
2022/01/25 04:31:04;;;;;;;3.00;1.95;;;;;;;19.64;41.94;98157.03;13046908;22;20511;-55
2022/01/25 04:36:51;;;;;;;2.75;2.00;;;;;;;19.64;41.97;98153.50;13067168;22;20019;-55
2022/01/25 04:53:50;;;;;;;2.50;2.03;;;;;;;19.59;41.87;98148.19;13045655;22;20367;-52
2022/01/25 04:59:12;;;;;;;2.78;2.10;;;;;;;19.59;41.92;98148.19;13045676;22;20034;-56
2022/01/25 05:04:38;;;;;;;2.83;1.90;;;;;;;19.58;41.91;98151.97;13064698;22;20015;-55
2022/01/25 05:09:59;;;;;;;1.98;1.65;;;;;;;19.54;41.93;98141.75;13065402;22;20022;-55
2022/01/25 05:15:58;;;;;;;2.15;1.92;;;;;;;19.54;42.07;98139.06;13066295;22;20774;-56
2022/01/25 05:26:44;;;;;;;2.10;1.90;;;;;;;19.52;42.52;98124.19;13045609;22;20022;-55
2022/01/25 05:32:04;;;;;;;3.00;1.90;;;;;;;19.53;42.66;98126.63;13045257;22;20015;-54
2022/01/25 05:37:24;;;;;;;2.22;1.83;;;;;;;19.52;42.74;98126.91;13065662;22;20025;-54
2022/01/25 05:42:51;;;;;;;3.20;1.70;;;;;;;19.50;43.10;98129.91;13045212;22;20015;-55
2022/01/25 05:48:11;;;;;;;2.63;1.88;;;;;;;19.50;43.11;98137.19;13044422;22;20015;-55
2022/01/25 05:53:31;;;;;;;2.63;1.90;;;;;;;19.49;43.36;98149.13;13043071;22;20015;-55
2022/01/25 05:58:50;;;;;;;2.60;1.88;;;;;;;19.47;43.31;98140.50;13044055;22;20011;-54
2022/01/25 06:04:10;;;;;;;2.30;1.80;;;;;;;19.47;43.39;98140.50;13044115;22;20015;-54
2022/01/25 06:09:29;;;;;;;2.78;2.00;;;;;;;19.45;43.58;98127.28;13041229;22;20045;-55
2022/01/25 06:14:49;;;;;;;2.08;1.70;;;;;;;19.45;43.63;98143.50;13066960;22;20029;-56
2022/01/25 06:20:08;;;;;;;3.33;1.98;;;;;;;19.42;43.75;98138.66;13043388;22;20419;-55
2022/01/25 06:25:28;;;;;;;3.92;2.22;;;;;;;19.43;43.78;98144.88;13061258;22;20069;-56
2022/01/25 06:30:48;;;;;;;4.70;2.50;;;;;;;19.42;44.00;98141.34;13039764;22;20016;-55
2022/01/25 06:36:08;;;;;;;4.63;2.70;;;;;;;19.41;43.87;98131.66;13038769;22;20015;-56
2022/01/25 06:41:27;;;;;;;8.95;2.95;;;;;;;19.41;43.91;98136.25;13044232;22;20022;-55
2022/01/25 06:46:47;;;;;;;6.18;2.65;;;;;;;19.40;44.04;98140.06;13045326;22;20022;-56
2022/01/25 06:52:06;;;;;;;9.48;3.22;;;;;;;19.37;43.95;98146.84;13046074;22;20039;-56
2022/01/25 06:57:25;;;;;;;6.28;2.80;;;;;;;19.37;43.87;98152.25;13048516;22;20015;-55
2022/01/25 07:02:45;;;;;;;15.88;3.53;;;;;;;19.35;43.91;98166.03;13048341;22;20021;-55
2022/01/25 07:08:05;;;;;;;8.20;3.20;;;;;;;19.34;43.88;98179.84;13069243;22;20015;-55
2022/01/25 07:13:25;;;;;;;8.50;3.17;;;;;;;19.33;43.74;98191.75;13047623;22;20026;-54
2022/01/25 07:18:44;;;;;;;5.72;2.97;;;;;;;19.32;43.93;98184.72;13048106;22;20011;-55
2022/01/25 07:24:04;;;;;;;7.70;3.70;;;;;;;19.30;43.88;98186.91;13047864;22;20524;-56
2022/01/25 07:29:23;;;;;;;7.05;3.30;;;;;;;19.29;43.87;98190.72;13047695;22;20576;-56
2022/01/25 07:34:43;;;;;;;6.07;3.17;;;;;;;19.27;43.67;98201.81;13047193;22;20089;-55
2022/01/25 07:40:04;;;;;;;6.85;3.50;;;;;;;19.26;43.74;98191.28;13047559;22;20011;-55
2022/01/25 07:45:24;;;;;;;7.82;2.92;;;;;;;19.25;43.62;98186.97;13047267;22;20441;-55
2022/01/25 07:50:44;;;;;;;6.93;3.22;;;;;;;19.24;43.62;98193.47;13047080;22;20080;-55
2022/01/25 07:56:04;;;;;;;5.18;2.90;;;;;;;19.22;43.62;98195.66;13066354;22;20019;-55
2022/01/25 08:01:24;;;;;;;8.07;3.10;;;;;;;19.21;43.49;98196.75;13067038;22;20022;-55
2022/01/25 08:06:44;;;;;;;6.05;3.00;;;;;;;19.20;43.56;98195.16;13045921;22;20019;-55
2022/01/25 08:12:03;;;;;;;4.20;2.67;;;;;;;19.19;43.53;98193.53;13047449;22;20015;-56
2022/01/25 08:17:23;;;;;;;6.65;2.70;;;;;;;19.16;43.43;98203.81;13064145;22;20026;-55
2022/01/25 08:22:44;;;;;;;4.50;2.67;;;;;;;19.16;43.30;98211.13;13045275;22;20019;-55
2022/01/25 08:28:04;;;;;;;5.70;2.72;;;;;;;19.13;43.29;98204.41;13046056;22;20015;-55
2022/01/25 08:33:24;;;;;;;6.20;2.83;;;;;;;19.12;43.25;98213.59;13066980;22;20487;-55
2022/01/25 08:38:43;;;;;;;6.05;2.80;;;;;;;19.10;43.29;98196.88;13067174;22;20451;-55
2022/01/25 08:44:03;;;;;;;4.88;2.58;;;;;;;19.10;43.30;98191.47;13046229;22;20042;-54
2022/01/25 08:49:23;;;;;;;5.75;2.60;;;;;;;19.08;43.30;98196.34;13066655;22;20020;-56
2022/01/25 08:54:42;;;;;;;3.70;2.42;;;;;;;19.06;42.61;98193.13;13045001;22;20019;-55
2022/01/25 09:00:08;;;;;;;3.88;2.40;;;;;;;19.05;42.91;98188.84;13045762;22;20011;-55
2022/01/25 09:05:28;;;;;;;3.25;2.28;;;;;;;19.03;42.90;98182.09;13045098;22;20019;-55
2022/01/25 09:10:50;;;;;;;5.13;2.35;;;;;;;19.03;42.76;98182.88;13066658;22;20457;-55
2022/01/25 09:16:10;;;;;;;4.30;2.45;;;;;;;19.01;42.56;98179.66;13044634;22;20016;-55
2022/01/25 09:21:30;;;;;;;5.15;2.58;;;;;;;18.99;42.71;98165.66;13045401;22;20023;-55
2022/01/25 09:26:50;;;;;;;4.40;2.40;;;;;;;18.99;42.59;98173.75;13045258;22;20442;-55
2022/01/25 09:32:09;;;;;;;3.90;2.20;;;;;;;18.96;42.51;98161.63;13043834;22;20015;-56
2022/01/25 09:37:29;;;;;;;4.38;2.40;;;;;;;18.97;42.73;98173.22;13064373;22;20209;-55
2022/01/25 09:42:52;;;;;;;4.82;2.50;;;;;;;18.95;42.66;98170.00;13045404;22;20335;-56
2022/01/25 09:48:13;;;;;;;3.30;2.22;;;;;;;18.94;42.72;98165.72;13045495;22;20019;-54
2022/01/25 09:53:33;;;;;;;3.65;2.33;;;;;;;18.92;42.65;98159.81;13044457;22;20554;-55
2022/01/25 09:58:52;;;;;;;3.72;2.30;;;;;;;18.91;43.20;98156.28;13066051;22;20083;-56
2022/01/25 10:04:49;;;;;;;5.45;2.72;;;;;;;18.90;42.75;98156.59;13045200;22;20015;-55
2022/01/25 10:10:09;;;;;;;6.15;3.03;;;;;;;18.89;42.58;98142.25;12985006;22;20022;-55
2022/01/25 10:15:28;;;;;;;6.68;3.00;;;;;;;18.88;42.50;98137.97;13047046;22;20026;-56
2022/01/25 10:20:50;;;;;;;5.13;2.70;;;;;;;18.87;42.53;98139.03;13069694;22;20350;-56
2022/01/25 10:26:10;;;;;;;4.38;2.42;;;;;;;18.85;42.52;98145.84;13049105;22;20389;-55
2022/01/25 10:31:41;;;;;;;6.15;2.70;;;;;;;18.84;42.72;98146.94;13049221;22;20015;-55
2022/01/25 10:37:07;;;;;;;4.57;2.38;;;;;;;18.82;42.42;98143.69;13070195;22;20039;-55
2022/01/25 10:42:29;;;;;;;4.07;2.55;;;;;;;18.81;42.42;98134.00;13049202;22;20019;-56
2022/01/25 10:47:50;;;;;;;7.47;2.95;;;;;;;18.78;42.57;98138.84;13048027;22;20011;-55
2022/01/25 10:53:11;;;;;;;4.13;2.20;;;;;;;18.77;42.38;98131.81;13047890;22;20015;-56
2022/01/25 10:58:31;;;;;;;5.00;2.47;;;;;;;18.77;42.42;98129.13;13048699;22;20065;-55
2022/01/25 11:03:50;;;;;;;2.90;2.10;;;;;;;18.75;42.36;98125.91;13048081;22;20015;-55
2022/01/25 11:09:12;;;;;;;3.65;2.05;;;;;;;18.74;42.41;98129.72;13047318;22;20019;-55
2022/01/25 11:20:09;;;;;;;5.10;2.40;;;;;;;18.73;42.51;98130.78;13044192;22;20462;-53
2022/01/25 11:25:29;;;;;;;3.50;2.00;;;;;;;18.72;42.32;98118.41;13045314;22;20406;-55
2022/01/25 11:30:50;;;;;;;3.13;2.10;;;;;;;18.69;42.34;98113.56;13047952;22;20015;-55
2022/01/25 11:36:10;;;;;;;3.17;2.13;;;;;;;18.68;42.34;98120.06;13046037;22;20078;-56
2022/01/25 11:41:34;;;;;;;3.22;2.05;;;;;;;18.68;42.32;98130.03;13047137;22;20073;-56
2022/01/25 11:47:12;;;;;;;3.50;2.65;;;;;;;18.65;42.24;98104.44;13068460;22;20012;-55
2022/01/25 11:52:31;;;;;;;4.47;2.30;;;;;;;18.64;42.34;98102.00;13047285;22;20410;-55
2022/01/25 11:58:06;;;;;;;4.68;2.28;;;;;;;18.63;42.31;98101.22;13047603;22;20458;-55
2022/01/25 12:03:26;;;;;;;2.83;2.08;;;;;;;18.62;42.33;98099.63;13068366;22;20018;-56
2022/01/25 12:14:25;;;;;;;3.45;2.10;;;;;;;18.62;42.71;98098.78;13068293;22;20651;-55
2022/01/25 12:19:51;;;;;;;3.85;2.13;;;;;;;18.60;42.58;98088.28;13068104;22;20015;-55
2022/01/25 12:25:45;;;;;;;2.65;1.80;;;;;;;18.61;42.93;98086.41;13047005;22;20023;-56
2022/01/25 12:31:17;;;;;;;2.83;1.73;;;;;;;18.59;42.89;98086.69;13067660;22;20094;-54
2022/01/25 12:36:37;;;;;;;2.13;1.60;;;;;;;18.58;42.98;98076.97;13067494;22;20044;-55
2022/01/25 12:41:59;;;;;;;3.35;2.00;;;;;;;18.57;43.02;98073.47;13046793;22;20019;-54
2022/01/25 12:47:19;;;;;;;3.45;2.05;;;;;;;18.56;42.96;98071.88;13046794;22;20086;-56
2022/01/25 12:52:39;;;;;;;3.38;1.90;;;;;;;18.55;42.83;98064.06;13066916;22;20095;-55
2022/01/25 12:57:58;;;;;;;3.47;1.60;;;;;;;18.54;43.09;98074.06;13046495;22;20398;-56
2022/01/25 13:03:23;;;;;;;2.33;1.65;;;;;;;18.53;43.01;98074.34;13046283;22;20438;-55
2022/01/25 13:08:52;;;;;;;3.35;1.75;;;;;;;18.53;43.07;98066.25;13022640;22;20106;-55
2022/01/25 13:19:40;;;;;;;2.67;2.03;;;;;;;18.51;43.00;98058.44;13067316;22;20090;-55
2022/01/25 13:25:14;;;;;;;3.43;2.13;;;;;;;18.50;43.01;98059.53;13046465;22;20088;-55
2022/01/25 13:30:45;;;;;;;2.83;1.80;;;;;;;18.49;42.88;98052.50;13045955;22;20277;-55
2022/01/25 13:36:07;;;;;;;3.28;1.83;;;;;;;18.48;42.84;98052.78;13045882;22;20016;-55
2022/01/25 13:41:29;;;;;;;2.85;1.90;;;;;;;18.47;42.90;98048.50;13066800;22;20522;-55
2022/01/25 13:46:49;;;;;;;2.75;1.75;;;;;;;18.44;42.83;98039.06;13046345;22;20472;-56
2022/01/25 13:52:08;;;;;;;2.42;1.83;;;;;;;18.45;42.96;98050.69;13049121;22;20019;-56
2022/01/25 13:57:28;;;;;;;2.58;1.70;;;;;;;18.44;42.81;98043.66;13050222;22;20072;-56
2022/01/25 14:02:53;;;;;;;1.90;1.70;;;;;;;18.42;42.79;98041.25;13070763;22;20600;-55
2022/01/25 14:08:13;;;;;;;2.17;1.83;;;;;;;18.41;42.93;98045.06;13048996;22;20026;-55
2022/01/25 14:24:54;;;;;;;2.15;1.50;;;;;;;18.39;42.76;98031.03;13049649;22;20064;-55
2022/01/25 14:30:15;;;;;;;2.63;1.50;;;;;;;18.39;42.85;98036.44;13049502;22;20019;-56
2022/01/25 14:35:41;;;;;;;2.05;1.60;;;;;;;18.38;42.69;98049.13;13048797;22;20015;-55
2022/01/25 14:41:08;;;;;;;2.78;1.55;;;;;;;18.36;42.72;98037.81;13049196;22;20015;-56
2022/01/25 14:46:35;;;;;;;2.10;1.48;;;;;;;18.37;42.67;98035.94;13049152;22;20026;-56
2022/01/25 14:51:59;;;;;;;2.08;1.48;;;;;;;18.36;42.47;98035.09;13048758;22;20015;-55
2022/01/25 14:57:24;;;;;;;2.30;1.55;;;;;;;18.37;42.57;98028.63;13069683;22;20019;-56
2022/01/25 15:02:44;;;;;;;2.00;1.30;;;;;;;18.38;42.61;98034.81;13048323;22;20371;-55
2022/01/25 15:08:04;;;;;;;2.33;1.55;;;;;;;18.40;42.69;98031.84;13048068;22;20081;-56
2022/01/25 15:13:25;;;;;;;2.10;1.52;;;;;;;18.43;42.59;98050.16;13048776;22;20026;-55
2022/01/25 15:18:45;;;;;;;1.50;1.40;;;;;;;18.44;42.44;98038.28;13048823;22;20037;-55
2022/01/25 15:24:05;;;;;;;1.60;1.42;;;;;;;18.46;42.65;98039.59;13048654;22;20026;-56
2022/01/25 15:29:25;;;;;;;1.40;1.30;;;;;;;18.50;42.58;98031.72;13047653;22;20094;-56
2022/01/25 15:34:44;;;;;;;1.58;1.23;;;;;;;18.51;42.44;98028.75;13069052;22;20086;-55
2022/01/25 15:40:05;;;;;;;1.65;1.48;;;;;;;18.55;42.35;98031.69;13048104;22;20060;-55
2022/01/25 15:45:30;;;;;;;1.42;1.33;;;;;;;18.58;42.40;98031.09;13048568;22;20015;-55
2022/01/25 15:50:50;;;;;;;1.73;1.30;;;;;;;18.61;42.46;98027.81;13047699;22;20019;-55
2022/01/25 15:56:10;;;;;;;1.85;1.40;;;;;;;18.65;42.43;98028.84;13067863;22;20020;-56
2022/01/25 16:01:29;;;;;;;1.77;1.65;;;;;;;18.68;42.35;98033.69;13047643;22;20531;-54
2022/01/25 16:06:50;;;;;;;1.55;1.38;;;;;;;18.72;42.34;98025.81;13046808;22;20343;-56
2022/01/25 16:12:12;;;;;;;1.65;1.40;;;;;;;18.75;42.09;98034.13;13046914;22;20046;-56
2022/01/25 16:17:31;;;;;;;1.23;1.05;;;;;;;18.79;42.16;98034.34;13047578;22;20039;-55
2022/01/25 16:22:50;;;;;;;2.60;2.40;;;;;;;18.76;38.49;98035.75;13045942;22;20019;-55
2022/01/25 16:28:10;;;;;;;1.55;1.45;;;;;;;18.78;41.08;98038.16;13063998;22;20339;-54
2022/01/25 16:33:29;;;;;;;3.38;1.52;;;;;;;18.85;41.24;98045.94;13066481;22;20022;-55
2022/01/25 16:38:49;;;;;;;1.95;1.70;;;;;;;18.91;41.35;98044.78;13065791;22;20019;-55
2022/01/25 16:44:08;;;;;;;2.70;1.63;;;;;;;18.97;41.24;98043.59;13066520;22;20022;-55
2022/01/25 16:49:28;;;;;;;2.47;1.48;;;;;;;19.02;41.70;98042.75;13041805;22;20011;-55
2022/01/25 16:54:47;;;;;;;1.98;1.75;;;;;;;19.08;41.75;98052.41;13045013;22;20023;-55
2022/01/25 17:00:11;;;;;;;2.03;1.60;;;;;;;19.11;42.06;98052.63;13043694;22;20015;-55
2022/01/25 17:05:31;;;;;;;2.92;1.30;;;;;;;19.17;42.20;98045.25;13043362;22;20023;-55
2022/01/25 17:10:51;;;;;;;5.05;1.60;;;;;;;19.22;42.22;98052.47;13043909;22;20015;-55
2022/01/25 17:16:12;;;;;;;1.75;1.40;;;;;;;19.27;42.22;98060.53;13043970;22;20027;-55
2022/01/25 17:21:31;;;;;;;2.83;1.65;;;;;;;19.32;42.09;98049.63;13044214;22;20090;-54
2022/01/25 17:26:51;;;;;;;1.88;1.58;;;;;;;19.38;42.24;98051.16;13044164;22;20052;-56
2022/01/25 17:32:12;;;;;;;2.17;1.40;;;;;;;19.42;42.51;98052.19;13065434;22;20019;-55
2022/01/25 17:37:32;;;;;;;2.67;1.35;;;;;;;19.47;42.64;98057.53;13043826;22;20439;-54
2022/01/25 17:42:52;;;;;;;2.22;1.25;;;;;;;19.52;42.66;98057.44;13044415;22;20016;-55
2022/01/25 17:48:11;;;;;;;2.80;1.50;;;;;;;19.60;42.76;98060.56;13043670;22;20026;-55
2022/01/25 17:53:31;;;;;;;3.30;1.70;;;;;;;19.67;43.28;98061.00;13064146;22;20045;-54
2022/01/25 17:58:50;;;;;;;3.72;2.00;;;;;;;19.74;44.04;98066.88;13044256;22;20015;-55
2022/01/25 18:04:10;;;;;;;2.38;1.73;;;;;;;19.82;44.04;98068.13;13043279;22;20544;-55
2022/01/25 18:09:30;;;;;;;2.35;1.58;;;;;;;19.91;44.38;98067.13;13042376;22;20026;-55
2022/01/25 18:14:50;;;;;;;2.25;1.50;;;;;;;19.97;44.10;98069.75;13044107;22;20022;-55
2022/01/25 18:20:11;;;;;;;2.55;1.75;;;;;;;20.03;43.94;98072.09;13043832;22;20018;-55
2022/01/25 18:30:54;;;;;;;1.98;1.35;;;;;;;20.15;43.46;98063.50;13043625;22;20315;-55
2022/01/25 18:36:14;;;;;;;2.53;1.35;;;;;;;20.19;43.37;98069.94;13066530;22;20015;-55
2022/01/25 18:41:34;;;;;;;1.42;1.30;;;;;;;20.23;42.65;98068.25;13046707;22;20019;-56
2022/01/25 18:46:53;;;;;;;3.08;1.30;;;;;;;20.29;42.92;98077.88;13047388;22;20499;-55
2022/01/25 18:52:13;;;;;;;1.60;1.50;;;;;;;20.33;43.09;98081.56;13067987;22;20023;-55
2022/01/25 18:57:32;;;;;;;2.33;1.38;;;;;;;20.39;42.96;98076.88;13047487;22;20132;-55
2022/01/25 19:02:53;;;;;;;1.77;1.60;;;;;;;20.44;42.72;98065.94;13067127;22;20015;-55
2022/01/25 19:08:12;;;;;;;3.15;1.40;;;;;;;20.50;42.68;98069.38;13046642;22;20015;-55
2022/01/25 19:13:32;;;;;;;1.40;1.30;;;;;;;20.54;42.38;98064.94;13046209;22;20022;-56
2022/01/25 19:18:53;;;;;;;1.80;1.50;;;;;;;20.60;42.28;98058.41;13046604;22;20011;-56
2022/01/25 19:24:12;;;;;;;3.22;1.30;;;;;;;20.65;41.97;98060.97;13068075;22;20016;-56
2022/01/25 19:29:32;;;;;;;1.40;1.20;;;;;;;20.67;41.79;98053.34;13046946;22;20068;-55
2022/01/25 19:34:52;;;;;;;2.03;1.30;;;;;;;20.73;41.72;98059.47;13045860;22;20022;-56
2022/01/25 19:40:11;;;;;;;4.43;2.60;;;;;;;20.77;39.51;98068.59;13067522;22;20094;-56
2022/01/25 19:45:31;;;;;;;3.47;2.00;;;;;;;20.84;40.48;98057.38;13023192;22;20094;-55
2022/01/25 19:50:51;;;;;;;3.25;1.70;;;;;;;20.87;40.68;98056.75;13046014;22;20022;-56
2022/01/25 19:56:11;;;;;;;2.30;1.52;;;;;;;20.93;40.82;98056.38;13046337;22;20015;-55
2022/01/25 20:01:32;;;;;;;4.75;1.83;;;;;;;20.98;41.25;98058.16;13045609;22;20572;-55
2022/01/25 20:06:57;;;;;;;2.10;1.85;;;;;;;21.02;41.53;98058.38;13045909;22;20019;-54
2022/01/25 20:12:16;;;;;;;2.85;1.80;;;;;;;21.04;41.46;98056.94;13067891;22;20018;-56
2022/01/25 20:17:38;;;;;;;2.90;1.50;;;;;;;21.07;41.58;98050.94;13046000;22;20011;-51
2022/01/25 20:23:09;;;;;;;3.50;1.70;;;;;;;21.12;41.86;98061.66;13066057;22;20019;-53
2022/01/25 20:28:36;;;;;;;5.18;1.80;;;;;;;21.16;42.25;98055.63;13044649;22;20019;-56
2022/01/25 20:33:56;;;;;;;4.30;2.15;;;;;;;21.17;42.65;98059.94;13044108;22;20015;-55
2022/01/25 20:39:16;;;;;;;3.83;1.90;;;;;;;21.18;42.75;98061.56;13044571;22;20011;-55
2022/01/25 20:44:35;;;;;;;4.80;2.00;;;;;;;21.19;42.94;98057.72;13043949;22;20026;-54
2022/01/25 20:49:57;;;;;;;5.93;2.22;;;;;;;21.20;43.17;98051.22;13063157;22;20085;-55
2022/01/25 20:55:17;;;;;;;3.95;1.77;;;;;;;21.23;43.13;98056.00;13043067;22;20441;-54
2022/01/25 21:00:46;;;;;;;3.67;1.67;;;;;;;21.24;43.22;98052.19;13065034;22;20126;-56
2022/01/25 21:11:51;;;;;;;4.10;1.60;;;;;;;21.28;42.91;98053.19;13064263;22;20027;-60
2022/01/25 21:17:11;;;;;;;3.88;1.80;;;;;;;21.29;43.09;98049.38;13043457;22;20018;-54
2022/01/25 21:22:30;;;;;;;4.05;1.65;;;;;;;21.29;43.47;98038.56;13040974;22;20015;-54
2022/01/25 21:27:50;;;;;;;3.40;1.70;;;;;;;21.31;43.52;98041.75;13038049;22;20331;-52
2022/01/25 21:33:11;;;;;;;5.97;1.80;;;;;;;21.31;43.28;98039.03;13042183;22;20022;-55
2022/01/25 21:38:31;;;;;;;1.85;1.63;;;;;;;21.30;43.27;98034.72;13044090;22;20011;-54
2022/01/25 21:43:51;;;;;;;3.40;1.83;;;;;;;21.30;43.33;98037.44;13041315;22;20019;-54
2022/01/25 21:49:11;;;;;;;2.05;1.67;;;;;;;21.31;43.27;98045.25;13041453;22;20019;-54
2022/01/25 21:54:31;;;;;;;3.30;1.80;;;;;;;21.31;43.24;98034.41;13040697;22;20023;-55
2022/01/25 21:59:50;;;;;;;5.47;2.17;;;;;;;21.30;43.24;98032.78;13042231;22;20834;-54
2022/01/25 22:05:11;;;;;;;3.58;1.90;;;;;;;21.32;43.03;98029.78;13040898;22;20027;-52
2022/01/25 22:10:36;;;;;;;8.15;1.90;;;;;;;21.32;43.03;98035.22;13059617;22;20089;-55
2022/01/25 22:15:56;;;;;;;2.63;1.58;;;;;;;21.33;42.88;98032.19;13065825;22;20015;-55
2022/01/25 22:21:16;;;;;;;1.85;1.60;;;;;;;21.33;42.96;98031.41;13045996;22;20015;-55
2022/01/25 22:26:36;;;;;;;2.17;1.88;;;;;;;21.31;42.79;98022.78;13066634;22;20015;-55
2022/01/25 22:31:55;;;;;;;3.78;1.90;;;;;;;21.31;42.80;98025.50;13023924;22;20019;-55
2022/01/25 22:37:14;;;;;;;1.98;1.70;;;;;;;21.30;42.63;98030.09;13046668;22;20012;-55
2022/01/25 22:42:34;;;;;;;2.72;1.67;;;;;;;21.30;42.61;98026.59;13046569;22;20098;-54
2022/01/25 22:48:06;;;;;;;2.33;1.63;;;;;;;21.28;42.69;98023.38;13046499;22;20316;-55
2022/01/25 22:53:26;;;;;;;2.42;2.05;;;;;;;21.27;42.62;98019.09;13045604;22;20019;-54
2022/01/25 22:58:45;;;;;;;2.33;1.60;;;;;;;21.25;42.50;98019.38;13067530;22;20015;-55
2022/01/25 23:04:05;;;;;;;2.75;1.67;;;;;;;21.26;42.53;98022.88;13069347;22;20015;-55
2022/01/25 23:09:24;;;;;;;1.60;1.48;;;;;;;21.24;42.44;98014.25;13068831;22;20015;-54
2022/01/25 23:14:47;;;;;;;2.38;1.83;;;;;;;21.23;42.38;98015.34;13047953;22;20015;-54
2022/01/25 23:20:19;;;;;;;1.95;1.63;;;;;;;21.21;42.43;98012.16;13068560;22;20455;-55
2022/01/25 23:25:39;;;;;;;2.00;1.50;;;;;;;21.20;42.37;98014.06;13068737;22;20023;-54
2022/01/25 23:31:27;;;;;;;3.00;1.60;;;;;;;21.19;42.33;98020.59;13047833;22;20478;-55
2022/01/25 23:36:49;;;;;;;;;;;;;;;21.18;42.23;98012.78;13048374;22;20023;-55
2022/01/25 23:42:14;;;;;;;2.55;1.55;;;;;;;21.14;42.28;98013.38;13069185;22;20229;-55
2022/01/25 23:47:39;;;;;;;1.63;1.50;;;;;;;21.14;42.19;97997.13;13047728;22;20022;-55
